Terminal Aerodrome Forecast
Issued by NWS Mt. Holly, NJ

Home | Current Version | Previous Version | Text Only | Print | Product List | Glossary On
Versions: 1 2 3 4 5 6 7 8 9 10 11 12 13 14 15 16 17 18 19 20 21 22 23 24 25 26 27 28 29 30 31 32 33 34 35 36 37 38 39 40 41 42 43 44 45 46 47 48 49 50
000
FTAK31 PANC 231132
TAFABE
TAF
PABE 231132Z 2312/2412 07020G28KT 3SM -SN BLSN OVC004
      TEMPO 2312/2314 1 1/2SM -SN
     FM231400 04025G35KT P6SM VCSH SCT015 BKN060
     FM231800 01020G30KT P6SM SCT060
     FM240000 34018G25KT P6SM SKC
     FM240600 32013KT P6SM VCSH BKN030=

USA.gov is the U.S. government's official web portal to all federal, state and local government web resources and services.